createdAt,value
2022-12-31T00:01:20.832Z,6.25
2022-12-31T00:03:47.492Z,7.35
2022-12-31T00:06:14.224Z,4.85
2022-12-31T00:08:41.527Z,8.27
2022-12-31T00:11:08.610Z,7.13
2022-12-31T00:13:35.393Z,8.63
2022-12-31T00:16:06.860Z,7.75
2022-12-31T00:18:36.834Z,9.75
2022-12-31T00:21:03.489Z,11.93
2022-12-31T00:23:30.216Z,10.65
2022-12-31T00:25:56.889Z,11.63
2022-12-31T00:28:23.630Z,11.18
2022-12-31T00:30:50.386Z,10.68
2022-12-31T00:33:17.124Z,10.52
2022-12-31T00:35:43.828Z,11.88
2022-12-31T00:38:10.578Z,12.98
2022-12-31T00:40:37.253Z,8.32
2022-12-31T00:43:03.982Z,10.77
2022-12-31T00:45:30.658Z,13.20
2022-12-31T00:47:57.384Z,8.35
2022-12-31T00:50:24.095Z,14.90
2022-12-31T00:52:50.785Z,12.38
2022-12-31T00:55:17.525Z,12.00
2022-12-31T00:57:44.257Z,11.85
2022-12-31T01:00:11.058Z,7.95
2022-12-31T01:02:37.999Z,9.52
2022-12-31T01:05:04.789Z,11.52
2022-12-31T01:07:31.474Z,10.77
2022-12-31T01:09:58.277Z,8.77
2022-12-31T01:12:25.101Z,10.00
2022-12-31T01:14:51.815Z,12.25
2022-12-31T01:17:18.542Z,11.65
2022-12-31T01:19:45.250Z,10.13
2022-12-31T01:22:12.252Z,12.30
2022-12-31T01:24:38.949Z,13.30
2022-12-31T01:27:05.732Z,15.05
2022-12-31T01:29:32.427Z,12.35
2022-12-31T01:31:59.162Z,13.82
2022-12-31T01:34:25.830Z,11.95
2022-12-31T01:36:52.538Z,10.18
2022-12-31T01:39:19.247Z,13.95
2022-12-31T01:41:46.021Z,14.85
2022-12-31T01:44:12.746Z,12.93
2022-12-31T01:46:39.526Z,11.27
2022-12-31T01:49:06.282Z,12.70
2022-12-31T01:51:33.023Z,13.98
2022-12-31T01:53:59.713Z,11.48
2022-12-31T01:56:26.411Z,11.65
2022-12-31T01:58:53.084Z,10.95
2022-12-31T02:01:19.865Z,14.25
2022-12-31T02:03:46.689Z,12.32
2022-12-31T02:06:13.367Z,14.02
2022-12-31T02:08:42.336Z,13.23
2022-12-31T02:11:09.224Z,13.68
2022-12-31T02:13:35.896Z,10.70
2022-12-31T02:16:02.651Z,14.02
2022-12-31T02:18:29.616Z,8.88
2022-12-31T02:20:56.356Z,9.48
2022-12-31T02:23:23.265Z,7.78
2022-12-31T02:25:50.125Z,11.10
2022-12-31T02:28:16.812Z,8.85
2022-12-31T02:30:43.554Z,9.35
2022-12-31T02:33:10.265Z,11.13
2022-12-31T02:35:37.008Z,8.00
2022-12-31T02:38:03.719Z,6.72
2022-12-31T02:40:30.473Z,5.53
2022-12-31T02:42:57.165Z,7.35
2022-12-31T02:45:23.836Z,5.45
2022-12-31T02:47:50.779Z,6.05
2022-12-31T02:50:17.549Z,9.50
2022-12-31T02:52:44.261Z,6.60
2022-12-31T02:55:10.936Z,9.80
2022-12-31T02:57:37.648Z,6.05
2022-12-31T03:00:22.918Z,7.22
2022-12-31T03:02:49.703Z,8.40
2022-12-31T03:05:16.429Z,5.22
2022-12-31T03:07:43.265Z,8.00
2022-12-31T03:10:09.904Z,7.40
2022-12-31T03:12:48.950Z,8.68
2022-12-31T03:15:21.980Z,5.53
2022-12-31T03:17:48.750Z,7.05
2022-12-31T03:20:34.361Z,2.85
2022-12-31T03:23:01.125Z,3.92
2022-12-31T03:25:38.040Z,5.60
2022-12-31T03:28:04.784Z,3.20
2022-12-31T03:30:31.983Z,2.83
2022-12-31T03:32:58.770Z,3.17
2022-12-31T03:35:25.517Z,4.50
2022-12-31T03:37:52.416Z,2.50
2022-12-31T03:40:19.140Z,3.95
2022-12-31T03:42:45.864Z,2.97
2022-12-31T03:45:12.540Z,0.95
2022-12-31T03:47:39.284Z,1.02
2022-12-31T03:50:06.012Z,1.13
2022-12-31T03:52:32.708Z,0.75
2022-12-31T03:54:59.442Z,1.67
2022-12-31T03:57:26.136Z,0.40
2022-12-31T03:59:52.837Z,0.30
2022-12-31T04:02:24.712Z,0.60
2022-12-31T04:04:54.920Z,0.32
2022-12-31T04:07:21.594Z,0.28
2022-12-31T04:09:48.276Z,0.20
2022-12-31T04:12:14.993Z,0.43
2022-12-31T04:14:41.715Z,1.63
2022-12-31T04:17:08.407Z,0.47
2022-12-31T04:19:35.067Z,1.40
2022-12-31T04:22:01.792Z,0.45
2022-12-31T04:24:29.137Z,0.10
2022-12-31T04:26:55.844Z,1.83
2022-12-31T04:29:22.631Z,0.47
2022-12-31T04:31:49.420Z,2.35
2022-12-31T04:34:16.177Z,1.23
2022-12-31T04:36:42.862Z,1.52
2022-12-31T04:39:09.528Z,2.13
2022-12-31T04:41:36.247Z,4.00
2022-12-31T04:44:03.076Z,2.88
2022-12-31T04:46:29.769Z,3.55
2022-12-31T04:48:56.567Z,3.15
2022-12-31T04:51:23.292Z,3.38
2022-12-31T04:53:50.026Z,4.50
2022-12-31T04:56:17.253Z,5.72
2022-12-31T04:58:44.097Z,5.72
2022-12-31T05:01:10.844Z,8.57
2022-12-31T05:03:37.688Z,7.47
2022-12-31T05:06:04.458Z,9.60
2022-12-31T05:08:31.120Z,10.70
2022-12-31T05:10:57.839Z,10.82
2022-12-31T05:13:28.076Z,10.30
2022-12-31T05:15:59.712Z,9.00
2022-12-31T05:18:26.482Z,13.82
2022-12-31T05:20:53.194Z,14.68
2022-12-31T05:23:19.914Z,13.52
2022-12-31T05:25:46.684Z,10.73
2022-12-31T05:28:13.343Z,13.00
2022-12-31T05:30:40.107Z,13.77
2022-12-31T05:33:06.781Z,11.82
2022-12-31T05:35:33.540Z,12.77
2022-12-31T05:38:00.268Z,10.27
2022-12-31T05:40:26.997Z,9.32
2022-12-31T05:42:53.701Z,11.32
2022-12-31T05:45:23.884Z,9.68
2022-12-31T05:47:53.641Z,10.13
2022-12-31T05:50:20.373Z,10.15
2022-12-31T05:52:55.411Z,10.38
2022-12-31T05:55:22.143Z,9.10
2022-12-31T05:57:48.829Z,10.27
2022-12-31T06:00:15.535Z,8.23
2022-12-31T06:02:42.277Z,12.60
2022-12-31T06:05:09.050Z,11.98
2022-12-31T06:07:35.775Z,14.77
2022-12-31T06:10:03.991Z,11.90
2022-12-31T06:12:30.709Z,12.90
2022-12-31T06:14:57.427Z,12.70
2022-12-31T06:17:24.245Z,15.13
2022-12-31T06:19:50.959Z,12.25
2022-12-31T06:22:18.841Z,12.68
2022-12-31T06:24:45.532Z,16.08
2022-12-31T06:27:12.224Z,13.60
2022-12-31T06:29:39.013Z,14.60
2022-12-31T06:32:05.745Z,15.65
2022-12-31T06:34:32.507Z,15.48
2022-12-31T06:36:59.379Z,13.40
2022-12-31T06:39:26.112Z,18.73
2022-12-31T06:41:52.920Z,16.95
2022-12-31T06:44:22.411Z,25.42
2022-12-31T06:46:49.876Z,13.38
2022-12-31T06:49:16.690Z,15.77
2022-12-31T06:51:45.964Z,13.55
2022-12-31T06:54:13.334Z,17.17
2022-12-31T06:56:40.131Z,16.08
2022-12-31T06:59:06.863Z,14.27
2022-12-31T07:01:33.702Z,17.25
2022-12-31T07:04:00.473Z,18.00
2022-12-31T07:06:27.245Z,17.42
2022-12-31T07:08:53.961Z,15.48
2022-12-31T07:11:20.649Z,14.88
2022-12-31T07:13:47.437Z,14.70
2022-12-31T07:16:14.196Z,14.93
2022-12-31T07:18:40.913Z,13.52
2022-12-31T07:21:07.691Z,8.48
2022-12-31T07:23:34.383Z,10.93
2022-12-31T07:26:01.190Z,10.20
2022-12-31T07:28:27.894Z,9.73
2022-12-31T07:30:54.690Z,11.70
2022-12-31T07:33:21.446Z,13.88
2022-12-31T07:35:48.170Z,11.13
2022-12-31T07:38:14.828Z,14.52
2022-12-31T07:40:41.553Z,8.60
2022-12-31T07:43:08.299Z,13.55
2022-12-31T07:45:35.055Z,13.55
2022-12-31T07:48:02.909Z,15.27
2022-12-31T07:50:29.839Z,15.23
2022-12-31T07:52:56.559Z,18.75
2022-12-31T07:55:23.356Z,20.40
2022-12-31T07:57:50.030Z,20.83
2022-12-31T08:00:17.675Z,16.27
2022-12-31T08:02:44.391Z,16.83
2022-12-31T08:05:11.096Z,18.05
2022-12-31T08:07:37.869Z,19.20
2022-12-31T08:10:04.743Z,19.63
2022-12-31T08:12:31.479Z,21.20
2022-12-31T08:14:58.207Z,17.52
2022-12-31T08:17:24.899Z,15.85
2022-12-31T08:19:51.893Z,16.23
2022-12-31T08:22:18.609Z,18.75
2022-12-31T08:24:45.348Z,17.52
2022-12-31T08:27:12.063Z,20.90
2022-12-31T08:29:38.836Z,22.80
2022-12-31T08:32:05.540Z,23.90
2022-12-31T08:34:32.288Z,21.95
2022-12-31T08:36:59.128Z,22.90
2022-12-31T08:39:25.825Z,26.52
2022-12-31T08:41:52.537Z,21.52
2022-12-31T08:44:19.234Z,18.60
2022-12-31T08:46:46.044Z,18.70
2022-12-31T08:49:14.753Z,23.60
2022-12-31T08:51:41.472Z,18.35
2022-12-31T08:54:08.175Z,25.10
2022-12-31T08:56:34.893Z,19.80
2022-12-31T08:59:01.663Z,22.60
2022-12-31T09:01:28.481Z,20.45
2022-12-31T09:03:55.312Z,18.88
2022-12-31T09:06:22.137Z,17.42
2022-12-31T09:08:48.893Z,21.08
2022-12-31T09:11:22.611Z,20.50
2022-12-31T09:13:50.072Z,22.00
2022-12-31T09:16:16.802Z,20.98
2022-12-31T09:18:43.721Z,20.70
2022-12-31T09:21:10.572Z,21.70
2022-12-31T09:23:37.331Z,21.25
2022-12-31T09:26:04.032Z,19.45
2022-12-31T09:28:33.012Z,20.50
2022-12-31T09:30:59.764Z,22.98
2022-12-31T09:33:26.467Z,24.27
2022-12-31T09:35:53.166Z,20.17
2022-12-31T09:38:19.961Z,22.08
2022-12-31T09:40:46.663Z,19.73
2022-12-31T09:43:13.350Z,20.90
2022-12-31T09:45:40.123Z,18.48
2022-12-31T09:48:06.805Z,17.73
2022-12-31T09:50:33.583Z,23.15
2022-12-31T09:53:00.296Z,19.85
2022-12-31T09:55:27.053Z,18.85
2022-12-31T09:57:53.767Z,20.88
2022-12-31T10:00:20.431Z,18.70
2022-12-31T10:02:47.369Z,18.90
2022-12-31T10:05:14.183Z,15.35
2022-12-31T10:07:40.889Z,17.58
2022-12-31T10:10:07.956Z,14.45
2022-12-31T10:12:34.637Z,17.58
2022-12-31T10:15:01.412Z,14.10
2022-12-31T10:17:28.140Z,14.05
2022-12-31T10:19:54.815Z,13.13
2022-12-31T10:22:21.522Z,10.40
2022-12-31T10:24:48.218Z,7.53
2022-12-31T10:27:16.500Z,8.43
2022-12-31T10:29:43.240Z,15.35
2022-12-31T10:32:09.937Z,8.50
2022-12-31T10:34:37.058Z,7.43
2022-12-31T10:37:03.878Z,7.55
2022-12-31T10:39:30.557Z,8.55
2022-12-31T10:41:57.279Z,6.32
2022-12-31T10:44:23.993Z,5.75
2022-12-31T10:46:50.758Z,7.35
2022-12-31T10:49:17.477Z,6.18
2022-12-31T10:51:44.227Z,3.50
2022-12-31T10:54:10.901Z,4.55
2022-12-31T10:56:37.592Z,5.28
2022-12-31T10:59:04.367Z,3.47
2022-12-31T11:01:32.961Z,4.05
2022-12-31T11:03:59.875Z,4.40
2022-12-31T11:06:26.707Z,5.18
2022-12-31T11:08:53.397Z,4.20
2022-12-31T11:11:20.105Z,4.07
2022-12-31T11:13:46.880Z,2.38
2022-12-31T11:16:13.666Z,3.13
2022-12-31T11:18:40.355Z,3.88
2022-12-31T11:21:07.075Z,3.67
2022-12-31T11:23:33.792Z,2.92
2022-12-31T11:26:00.487Z,2.78
2022-12-31T11:28:27.269Z,3.25
2022-12-31T11:30:54.016Z,3.60
2022-12-31T11:33:23.118Z,2.28
2022-12-31T11:35:50.184Z,2.58
2022-12-31T11:38:18.422Z,3.10
2022-12-31T11:40:48.177Z,2.42
2022-12-31T11:43:14.894Z,2.17
2022-12-31T11:45:46.976Z,3.35
2022-12-31T11:50:59.811Z,1.75
2022-12-31T11:53:26.621Z,1.77
2022-12-31T11:55:53.327Z,1.50
2022-12-31T11:58:28.472Z,2.15
2022-12-31T12:00:55.380Z,1.83
2022-12-31T12:03:23.141Z,3.90
2022-12-31T12:05:49.881Z,4.22
2022-12-31T12:08:16.603Z,4.85
2022-12-31T12:10:43.320Z,8.40
2022-12-31T12:13:10.076Z,8.05
2022-12-31T12:15:36.765Z,10.02
2022-12-31T12:18:03.417Z,13.88
2022-12-31T12:20:30.179Z,10.13
2022-12-31T12:22:57.277Z,13.32
2022-12-31T12:25:23.970Z,12.50
2022-12-31T12:27:50.696Z,12.90
2022-12-31T12:30:17.459Z,18.02
2022-12-31T12:32:44.363Z,12.88
2022-12-31T12:35:11.047Z,14.73
2022-12-31T12:37:37.774Z,15.10
2022-12-31T12:40:04.491Z,14.90
2022-12-31T12:42:31.196Z,19.88
2022-12-31T12:45:00.766Z,16.08
2022-12-31T12:47:27.537Z,13.13
2022-12-31T12:49:54.388Z,10.93
2022-12-31T12:52:21.071Z,11.90
2022-12-31T12:54:47.791Z,10.73
2022-12-31T12:57:14.476Z,13.25
2022-12-31T12:59:41.731Z,14.07
2022-12-31T13:02:08.515Z,10.90
2022-12-31T13:04:35.713Z,16.88
2022-12-31T13:07:02.839Z,15.25
2022-12-31T13:09:29.697Z,15.95
2022-12-31T13:11:56.364Z,12.88
2022-12-31T13:14:23.144Z,15.38
2022-12-31T13:16:49.887Z,12.40
2022-12-31T13:19:16.665Z,16.75
2022-12-31T13:21:43.395Z,11.90
2022-12-31T13:24:10.110Z,16.50
2022-12-31T13:26:36.854Z,23.58
2022-12-31T13:29:03.696Z,17.38
2022-12-31T13:31:30.593Z,18.30
2022-12-31T13:33:57.999Z,18.60
2022-12-31T13:36:24.810Z,17.45
2022-12-31T13:38:51.615Z,18.25
2022-12-31T13:41:18.340Z,17.00
2022-12-31T13:43:50.649Z,16.35
2022-12-31T13:46:17.767Z,21.83
2022-12-31T13:48:44.569Z,17.02
2022-12-31T13:51:11.236Z,16.42
2022-12-31T13:53:37.951Z,20.83
2022-12-31T13:56:04.662Z,19.75
2022-12-31T13:58:31.785Z,16.23
2022-12-31T14:00:58.712Z,16.15
2022-12-31T14:03:25.587Z,17.83
2022-12-31T14:05:52.360Z,17.08
2022-12-31T14:08:19.081Z,16.67
2022-12-31T14:10:45.776Z,17.05
2022-12-31T14:13:13.200Z,18.02
2022-12-31T14:15:39.983Z,14.63
2022-12-31T14:18:07.178Z,16.63
2022-12-31T14:20:33.894Z,16.05
2022-12-31T14:23:02.672Z,16.83
2022-12-31T14:25:29.397Z,14.93
2022-12-31T14:27:56.206Z,17.05
2022-12-31T14:30:22.956Z,19.90
2022-12-31T14:32:49.791Z,19.67
2022-12-31T14:35:17.399Z,21.33
2022-12-31T14:37:44.087Z,25.38
2022-12-31T14:40:11.008Z,24.63
2022-12-31T14:42:37.751Z,25.73
2022-12-31T14:45:04.816Z,29.23
2022-12-31T14:47:31.537Z,34.10
2022-12-31T14:49:58.260Z,34.30
2022-12-31T14:52:25.300Z,29.90
2022-12-31T14:54:51.989Z,33.58
2022-12-31T14:57:18.730Z,31.15
2022-12-31T14:59:45.451Z,36.08
2022-12-31T15:02:12.716Z,33.03
2022-12-31T15:04:39.488Z,40.03
2022-12-31T15:07:06.248Z,37.53
2022-12-31T15:09:32.939Z,34.80
2022-12-31T15:11:59.686Z,38.95
2022-12-31T15:14:26.349Z,31.55
2022-12-31T15:16:53.328Z,40.13
2022-12-31T15:19:20.151Z,40.00
2022-12-31T15:21:46.850Z,34.95
2022-12-31T15:24:13.621Z,40.53
2022-12-31T15:26:40.317Z,47.15
2022-12-31T15:29:07.076Z,35.47
2022-12-31T15:31:33.862Z,38.03
2022-12-31T15:34:00.606Z,42.33
2022-12-31T15:36:27.614Z,37.08
2022-12-31T15:38:54.307Z,39.13
2022-12-31T15:41:21.099Z,34.22
2022-12-31T15:43:47.806Z,33.55
2022-12-31T15:46:14.750Z,38.47
2022-12-31T15:48:41.507Z,36.25
2022-12-31T15:51:08.244Z,38.05
2022-12-31T15:53:34.984Z,36.83
2022-12-31T15:56:01.749Z,34.72
2022-12-31T15:58:28.501Z,36.45
2022-12-31T16:00:55.183Z,35.80
2022-12-31T16:03:22.259Z,36.67
2022-12-31T16:05:49.254Z,41.30
2022-12-31T16:08:16.629Z,37.20
2022-12-31T16:10:43.307Z,38.03
2022-12-31T16:13:09.998Z,37.63
2022-12-31T16:15:36.876Z,36.08
2022-12-31T16:18:03.725Z,34.05
2022-12-31T16:20:30.768Z,42.35
2022-12-31T16:23:01.809Z,39.78
2022-12-31T16:25:31.261Z,39.95
2022-12-31T16:27:58.552Z,34.42
2022-12-31T16:30:25.305Z,39.17
2022-12-31T16:32:52.146Z,33.20
2022-12-31T16:35:23.125Z,37.30
2022-12-31T16:37:50.363Z,35.95
2022-12-31T16:40:17.544Z,36.13
2022-12-31T16:42:44.720Z,35.47
2022-12-31T16:45:11.482Z,31.15
2022-12-31T16:47:38.267Z,36.78
2022-12-31T16:50:04.979Z,36.40
2022-12-31T16:52:31.790Z,36.88
2022-12-31T16:54:58.639Z,37.38
2022-12-31T16:57:25.384Z,37.15
2022-12-31T16:59:52.643Z,43.30
2022-12-31T17:02:19.501Z,32.35
2022-12-31T17:04:52.039Z,35.85
2022-12-31T17:07:22.297Z,32.25
2022-12-31T17:09:49.005Z,31.45
2022-12-31T17:12:16.034Z,43.60
2022-12-31T17:14:42.779Z,40.40
2022-12-31T17:17:09.511Z,35.63
2022-12-31T17:19:36.473Z,36.83
2022-12-31T17:22:03.374Z,41.15
2022-12-31T17:24:30.104Z,36.78
2022-12-31T17:26:56.888Z,33.03
2022-12-31T17:29:26.396Z,33.53
2022-12-31T17:31:53.577Z,33.38
2022-12-31T17:34:20.318Z,32.45
2022-12-31T17:36:47.072Z,34.65
2022-12-31T17:39:13.859Z,30.25
2022-12-31T17:41:40.561Z,34.00
2022-12-31T17:44:07.356Z,28.48
2022-12-31T17:46:34.857Z,29.90
2022-12-31T17:49:01.661Z,28.02
2022-12-31T17:51:28.356Z,31.40
2022-12-31T17:53:55.054Z,33.15
2022-12-31T17:56:21.841Z,31.23
2022-12-31T17:58:48.653Z,35.20
2022-12-31T18:01:15.479Z,26.65
2022-12-31T18:03:42.413Z,39.03
2022-12-31T18:06:13.011Z,29.77
2022-12-31T18:08:42.970Z,34.42
2022-12-31T18:11:09.679Z,32.78
2022-12-31T18:13:36.373Z,36.45
2022-12-31T18:16:03.134Z,35.97
2022-12-31T18:18:30.015Z,41.83
2022-12-31T18:20:56.737Z,30.33
2022-12-31T18:23:23.451Z,38.95
2022-12-31T18:25:50.216Z,34.03
2022-12-31T18:28:16.933Z,32.90
2022-12-31T18:30:43.723Z,35.00
2022-12-31T18:33:10.422Z,38.97
2022-12-31T18:38:23.858Z,35.17
2022-12-31T18:40:50.591Z,34.45
2022-12-31T18:43:17.429Z,30.90
2022-12-31T18:45:44.170Z,42.20
2022-12-31T18:48:10.983Z,34.65
2022-12-31T18:50:37.702Z,35.38
2022-12-31T18:53:04.428Z,35.75
2022-12-31T18:55:31.217Z,35.15
2022-12-31T18:57:57.903Z,39.30
2022-12-31T19:00:24.560Z,34.83
2022-12-31T19:02:51.352Z,36.08
2022-12-31T19:05:18.077Z,39.17
2022-12-31T19:07:44.777Z,40.08
2022-12-31T19:10:11.515Z,40.42
2022-12-31T19:12:38.239Z,37.38
2022-12-31T19:15:04.908Z,39.03
2022-12-31T19:17:31.695Z,48.25
2022-12-31T19:20:04.112Z,37.75
2022-12-31T19:22:30.897Z,37.83
2022-12-31T19:24:57.700Z,40.72
2022-12-31T19:27:26.812Z,41.05
2022-12-31T19:29:53.599Z,39.58
2022-12-31T19:32:20.318Z,38.80
2022-12-31T19:34:46.998Z,39.55
2022-12-31T19:37:13.781Z,37.55
2022-12-31T19:39:40.451Z,34.88
2022-12-31T19:42:07.187Z,38.25
2022-12-31T19:44:33.890Z,29.45
2022-12-31T19:47:00.630Z,35.58
2022-12-31T19:49:27.391Z,38.53
2022-12-31T19:51:54.152Z,29.63
2022-12-31T19:54:20.868Z,37.47
2022-12-31T19:56:47.635Z,37.63
2022-12-31T19:59:14.347Z,39.95
2022-12-31T20:01:41.351Z,32.83
2022-12-31T20:04:08.175Z,33.13
2022-12-31T20:06:34.857Z,30.95
2022-12-31T20:09:01.535Z,32.28
2022-12-31T20:11:28.317Z,33.20
2022-12-31T20:13:55.148Z,36.25
2022-12-31T20:16:21.965Z,31.73
2022-12-31T20:18:48.723Z,30.23
2022-12-31T20:21:15.751Z,28.20
2022-12-31T20:23:42.401Z,29.85
2022-12-31T20:26:09.195Z,37.20
2022-12-31T20:28:35.907Z,32.47
2022-12-31T20:31:02.608Z,27.42
2022-12-31T20:33:29.361Z,32.33
2022-12-31T20:35:56.090Z,31.10
2022-12-31T20:38:22.835Z,31.52
2022-12-31T20:40:49.502Z,34.08
2022-12-31T20:43:16.223Z,28.08
2022-12-31T20:45:43.030Z,23.77
2022-12-31T20:48:09.825Z,28.75
2022-12-31T20:50:36.573Z,31.27
2022-12-31T20:53:03.267Z,27.70
2022-12-31T20:55:30.894Z,27.38
2022-12-31T20:57:57.592Z,30.05
2022-12-31T21:00:24.340Z,23.10
2022-12-31T21:03:00.265Z,26.95
2022-12-31T21:05:30.895Z,23.45
2022-12-31T21:07:57.727Z,24.55
2022-12-31T21:10:24.513Z,27.80
2022-12-31T21:12:54.023Z,26.15
2022-12-31T21:15:21.388Z,25.25
2022-12-31T21:17:48.128Z,26.65
2022-12-31T21:20:14.872Z,25.42
2022-12-31T21:22:41.667Z,21.55
2022-12-31T21:25:08.387Z,18.42
2022-12-31T21:27:35.154Z,21.33
2022-12-31T21:30:18.249Z,16.33
2022-12-31T21:32:45.934Z,16.02
2022-12-31T21:38:00.702Z,18.77
2022-12-31T21:40:27.533Z,19.25
2022-12-31T21:42:54.232Z,16.50
2022-12-31T21:45:20.947Z,16.77
2022-12-31T21:48:06.418Z,21.85
2022-12-31T21:50:33.135Z,17.90
2022-12-31T21:52:59.841Z,20.42
2022-12-31T21:55:45.008Z,16.20
2022-12-31T21:58:28.172Z,16.80
2022-12-31T22:01:13.915Z,18.30
2022-12-31T22:03:40.809Z,14.00
2022-12-31T22:06:12.195Z,12.27
2022-12-31T22:08:38.957Z,15.27
2022-12-31T22:11:05.679Z,15.57
2022-12-31T22:13:32.374Z,15.10
2022-12-31T22:16:04.650Z,17.92
2022-12-31T22:18:34.055Z,16.88
2022-12-31T22:21:00.779Z,18.88
2022-12-31T22:23:27.517Z,20.33
2022-12-31T22:25:54.225Z,14.18
2022-12-31T22:28:38.206Z,15.15
2022-12-31T22:31:06.159Z,18.15
2022-12-31T22:33:32.872Z,21.30
2022-12-31T22:35:59.588Z,18.38
2022-12-31T22:38:26.494Z,16.15
2022-12-31T22:40:53.211Z,18.92
2022-12-31T22:43:19.921Z,14.23
2022-12-31T22:45:46.717Z,16.73
2022-12-31T22:48:13.383Z,15.15
2022-12-31T22:50:40.118Z,17.92
2022-12-31T22:53:06.875Z,19.77
2022-12-31T22:55:33.570Z,19.52
2022-12-31T22:58:00.368Z,14.52
2022-12-31T23:00:27.051Z,16.33
2022-12-31T23:02:53.899Z,11.95
2022-12-31T23:05:20.637Z,11.48
2022-12-31T23:07:47.373Z,13.77
2022-12-31T23:10:32.954Z,15.95
2022-12-31T23:13:19.682Z,17.10
2022-12-31T23:16:05.234Z,15.10
2022-12-31T23:18:50.825Z,11.82
2022-12-31T23:21:36.190Z,12.60
2022-12-31T23:24:04.502Z,6.97
2022-12-31T23:26:31.199Z,13.43
2022-12-31T23:28:57.889Z,9.95
2022-12-31T23:31:28.829Z,12.93
2022-12-31T23:33:55.641Z,13.43
2022-12-31T23:36:22.327Z,11.00
2022-12-31T23:38:49.038Z,12.10
2022-12-31T23:41:15.782Z,9.60
2022-12-31T23:43:42.497Z,11.38
2022-12-31T23:46:09.227Z,12.90
2022-12-31T23:48:35.897Z,10.68
2022-12-31T23:51:02.817Z,10.25
2022-12-31T23:53:29.675Z,10.02
2022-12-31T23:55:56.469Z,9.85
2022-12-31T23:58:23.220Z,11.20
